Time;durP1;ratioP1;P1;durP2;ratioP2;P2;SDS_P1;SDS_P2;PMS_P1;PMS_P2;Temp;Humidity;BMP_temperature;BMP_pressure;BME280_temperature;BME280_humidity;BME280_pressure;Samples;Min_cycle;Max_cycle;Signal;HPM_P1;HPM_P2
2022/09/02 00:00:33;;;;;;;33.88;4.72;;;;;;;;;;4938630;29;20048;-64
2022/09/02 00:02:59;;;;;;;28.55;5.35;;;;;;;;;;4940510;29;20054;-64
2022/09/02 00:05:26;;;;;;;23.85;4.07;;;;;;;;;;4940657;28;20059;-64
2022/09/02 00:07:53;;;;;;;31.77;4.65;;;;;;;;;;4940317;28;20111;-65
2022/09/02 00:10:19;;;;;;;13.70;3.42;;;;;;;;;;4940817;28;20091;-65
2022/09/02 00:12:46;;;;;;;31.83;4.93;;;;;;;;;;4936906;29;20050;-64
2022/09/02 00:15:13;;;;;;;31.02;4.43;;;;;;;;;;4940526;28;20051;-64
2022/09/02 00:17:39;;;;;;;12.65;3.72;;;;;;;;;;4940475;29;20176;-64
2022/09/02 00:20:08;;;;;;;26.45;4.10;;;;;;;;;;4940393;29;20044;-64
2022/09/02 00:22:35;;;;;;;34.67;4.65;;;;;;;;;;4940314;28;20122;-64
2022/09/02 00:25:01;;;;;;;23.83;4.55;;;;;;;;;;4938275;28;20138;-65
2022/09/02 00:27:28;;;;;;;17.38;3.80;;;;;;;;;;4938397;29;20039;-65
2022/09/02 00:29:54;;;;;;;30.13;5.07;;;;;;;;;;4940411;29;20048;-65
2022/09/02 00:32:21;;;;;;;14.23;3.30;;;;;;;;;;4941205;28;20087;-65
2022/09/02 00:34:48;;;;;;;46.30;6.28;;;;;;;;;;4941858;28;20047;-65
2022/09/02 00:37:15;;;;;;;35.70;5.38;;;;;;;;;;4957627;28;20118;-65
2022/09/02 00:39:41;;;;;;;13.20;3.38;;;;;;;;;;4937379;29;20047;-65
2022/09/02 00:42:08;;;;;;;23.55;4.30;;;;;;;;;;4939373;28;20130;-64
2022/09/02 00:44:35;;;;;;;42.88;5.38;;;;;;;;;;4926167;29;20469;-64
2022/09/02 00:47:01;;;;;;;32.35;5.05;;;;;;;;;;4939564;28;20076;-65
2022/09/02 00:49:30;;;;;;;13.90;3.35;;;;;;;;;;4939461;28;20122;-64
2022/09/02 00:51:59;;;;;;;35.47;5.03;;;;;;;;;;4935771;28;20046;-64
2022/09/02 00:54:28;;;;;;;35.42;4.95;;;;;;;;;;4938777;29;20062;-65
2022/09/02 00:56:55;;;;;;;39.97;5.00;;;;;;;;;;4948930;29;20487;-64
2022/09/02 00:59:45;;;;;;;40.22;4.97;;;;;;;;;;4946722;29;20075;-65
2022/09/02 01:02:12;;;;;;;19.27;3.75;;;;;;;;;;4939932;29;20048;-63
2022/09/02 01:04:38;;;;;;;49.92;6.38;;;;;;;;;;4939243;28;20043;-66
2022/09/02 01:07:06;;;;;;;27.40;4.72;;;;;;;;;;4952461;28;20052;-66
2022/09/02 01:09:32;;;;;;;16.35;3.33;;;;;;;;;;4937876;29;20122;-65
2022/09/02 01:12:02;;;;;;;43.53;6.15;;;;;;;;;;4939187;29;20044;-65
2022/09/02 01:14:29;;;;;;;15.35;3.88;;;;;;;;;;4931475;29;20099;-65
2022/09/02 01:17:00;;;;;;;21.90;3.33;;;;;;;;;;4938501;29;20043;-65
2022/09/02 01:19:30;;;;;;;42.95;6.78;;;;;;;;;;4953317;28;20085;-65
2022/09/02 01:21:57;;;;;;;93.03;31.10;;;;;;;;;;4918853;28;20142;-65
2022/09/02 01:24:26;;;;;;;21.05;5.75;;;;;;;;;;4938487;29;20471;-65
2022/09/02 01:26:54;;;;;;;38.22;5.45;;;;;;;;;;4938777;28;20134;-66
2022/09/02 01:29:21;;;;;;;27.90;4.75;;;;;;;;;;4945979;28;20093;-66
2022/09/02 01:31:48;;;;;;;50.58;6.13;;;;;;;;;;4924938;29;20058;-65
2022/09/02 01:34:15;;;;;;;21.60;4.40;;;;;;;;;;4968644;28;20063;-65
2022/09/02 01:36:42;;;;;;;30.30;5.47;;;;;;;;;;4937995;29;20047;-65
2022/09/02 01:39:10;;;;;;;47.20;6.95;;;;;;;;;;4938842;29;20500;-63
2022/09/02 01:41:36;;;;;;;28.02;5.55;;;;;;;;;;4938937;28;20483;-63
2022/09/02 01:44:04;;;;;;;22.15;5.75;;;;;;;;;;4938846;28;20046;-66
2022/09/02 01:46:32;;;;;;;40.58;7.07;;;;;;;;;;4948496;28;20044;-65
2022/09/02 01:48:58;;;;;;;35.35;7.05;;;;;;;;;;4936589;29;20051;-64
2022/09/02 01:51:26;;;;;;;43.45;7.50;;;;;;;;;;4920309;29;20139;-64
2022/09/02 01:53:53;;;;;;;28.70;6.13;;;;;;;;;;4929854;29;20047;-64
2022/09/02 01:56:20;;;;;;;18.58;5.07;;;;;;;;;;4932558;29;20496;-64
2022/09/02 01:58:47;;;;;;;29.95;6.00;;;;;;;;;;4950180;29;20107;-64
2022/09/02 02:01:14;;;;;;;27.50;6.00;;;;;;;;;;4937683;28;20496;-64
2022/09/02 02:03:44;;;;;;;17.77;4.97;;;;;;;;;;4918077;29;20044;-64
2022/09/02 02:06:11;;;;;;;14.18;4.60;;;;;;;;;;4945350;28;20047;-65
2022/09/02 02:08:39;;;;;;;55.92;7.80;;;;;;;;;;4919623;29;20048;-65
2022/09/02 02:11:06;;;;;;;20.33;5.65;;;;;;;;;;4938741;28;20126;-64
2022/09/02 02:13:35;;;;;;;22.98;5.40;;;;;;;;;;4938465;29;20063;-64
2022/09/02 02:16:02;;;;;;;47.78;7.65;;;;;;;;;;4935657;29;20453;-64
2022/09/02 02:18:30;;;;;;;30.33;5.68;;;;;;;;;;4919822;29;20073;-64
2022/09/02 02:20:57;;;;;;;20.30;5.57;;;;;;;;;;4938021;28;20059;-64
2022/09/02 02:23:24;;;;;;;37.88;7.30;;;;;;;;;;4938301;29;20044;-63
2022/09/02 02:25:50;;;;;;;31.88;6.18;;;;;;;;;;4944729;28;20139;-63
2022/09/02 02:28:17;;;;;;;57.28;6.85;;;;;;;;;;4920236;28;20042;-63
2022/09/02 02:30:44;;;;;;;282.63;22.00;;;;;;;;;;4934595;28;20039;-64
2022/09/02 02:33:10;;;;;;;95.10;9.73;;;;;;;;;;4938899;29;20040;-64
2022/09/02 02:35:37;;;;;;;67.15;7.72;;;;;;;;;;4940698;29;20050;-64
2022/09/02 02:38:04;;;;;;;53.08;7.72;;;;;;;;;;4926096;29;20065;-64
2022/09/02 02:40:31;;;;;;;58.67;7.80;;;;;;;;;;4951843;29;20054;-64
2022/09/02 02:42:58;;;;;;;62.20;8.48;;;;;;;;;;4949114;28;20044;-64
2022/09/02 02:45:25;;;;;;;39.25;6.43;;;;;;;;;;4936400;29;20055;-65
2022/09/02 02:47:51;;;;;;;38.28;7.10;;;;;;;;;;4920588;29;20433;-64
2022/09/02 02:50:21;;;;;;;26.42;5.57;;;;;;;;;;4920756;29;20084;-64
2022/09/02 02:52:48;;;;;;;56.20;7.50;;;;;;;;;;4944148;29;20046;-62
2022/09/02 02:55:16;;;;;;;25.23;5.85;;;;;;;;;;4950863;28;20051;-64
2022/09/02 02:57:43;;;;;;;47.15;6.93;;;;;;;;;;4935344;29;20047;-64
2022/09/02 03:00:24;;;;;;;40.35;7.25;;;;;;;;;;4920091;29;20046;-64
2022/09/02 03:02:54;;;;;;;23.52;5.78;;;;;;;;;;4937151;28;20047;-64
2022/09/02 03:05:20;;;;;;;48.22;7.50;;;;;;;;;;4937428;29;20095;-64
2022/09/02 03:07:47;;;;;;;42.13;6.47;;;;;;;;;;4923482;29;20047;-63
2022/09/02 03:10:18;;;;;;;23.70;5.55;;;;;;;;;;4935092;29;20047;-63
2022/09/02 03:12:46;;;;;;;43.15;7.63;;;;;;;;;;4933681;29;20039;-62
2022/09/02 03:15:16;;;;;;;14.73;5.05;;;;;;;;;;4943255;28;20052;-62
2022/09/02 03:17:44;;;;;;;27.98;7.05;;;;;;;;;;4944000;28;20417;-62
2022/09/02 03:20:12;;;;;;;51.83;8.38;;;;;;;;;;4919765;29;20488;-63
2022/09/02 03:22:46;;;;;;;42.08;7.68;;;;;;;;;;4947071;29;20044;-63
2022/09/02 03:25:15;;;;;;;35.47;7.32;;;;;;;;;;4926112;28;20155;-65
2022/09/02 03:27:46;;;;;;;36.58;7.43;;;;;;;;;;4933814;29;20130;-65
2022/09/02 03:30:15;;;;;;;65.00;9.60;;;;;;;;;;4934463;29;20058;-64
2022/09/02 03:32:42;;;;;;;51.78;8.80;;;;;;;;;;4942220;29;20043;-65
2022/09/02 03:35:12;;;;;;;55.97;9.13;;;;;;;;;;4944421;29;20043;-65
2022/09/02 03:37:38;;;;;;;43.22;7.70;;;;;;;;;;4946704;28;20497;-65
2022/09/02 03:40:07;;;;;;;59.50;9.63;;;;;;;;;;4934343;29;20048;-65
2022/09/02 03:42:33;;;;;;;51.10;8.40;;;;;;;;;;4934708;29;20071;-65
2022/09/02 03:45:00;;;;;;;43.05;7.63;;;;;;;;;;4936514;28;20479;-66
2022/09/02 03:47:28;;;;;;;54.58;9.00;;;;;;;;;;4931142;29;20047;-64
2022/09/02 03:49:56;;;;;;;34.45;7.07;;;;;;;;;;4943395;29;20429;-66
2022/09/02 03:52:23;;;;;;;48.75;7.90;;;;;;;;;;4931689;29;20400;-64
2022/09/02 03:54:50;;;;;;;75.82;9.82;;;;;;;;;;4915643;29;20389;-65
2022/09/02 03:57:19;;;;;;;54.97;7.75;;;;;;;;;;4919328;29;20056;-64
2022/09/02 03:59:46;;;;;;;45.35;8.15;;;;;;;;;;4919259;29;20075;-65
2022/09/02 04:02:13;;;;;;;61.47;8.57;;;;;;;;;;4942865;28;20047;-66
2022/09/02 04:04:40;;;;;;;69.80;9.90;;;;;;;;;;4917694;29;20044;-65
2022/09/02 04:07:08;;;;;;;46.63;7.55;;;;;;;;;;4934344;28;20043;-65
2022/09/02 04:09:34;;;;;;;52.50;8.75;;;;;;;;;;4917832;29;20548;-66
2022/09/02 04:12:02;;;;;;;31.63;6.68;;;;;;;;;;4936654;29;20416;-66
2022/09/02 04:14:30;;;;;;;38.25;7.85;;;;;;;;;;4943478;28;20126;-65
2022/09/02 04:16:57;;;;;;;68.60;8.63;;;;;;;;;;4923339;29;20047;-66
2022/09/02 04:19:23;;;;;;;70.25;8.25;;;;;;;;;;4951841;29;20062;-66
2022/09/02 04:21:50;;;;;;;45.38;8.75;;;;;;;;;;4934162;28;20059;-66
2022/09/02 04:24:16;;;;;;;52.42;7.63;;;;;;;;;;4919674;29;20044;-65
2022/09/02 04:26:46;;;;;;;123.53;13.00;;;;;;;;;;4921332;29;20087;-66
2022/09/02 04:29:15;;;;;;;174.60;15.23;;;;;;;;;;4946641;29;20067;-66
2022/09/02 04:31:46;;;;;;;153.30;14.70;;;;;;;;;;4925108;29;20071;-66
2022/09/02 04:34:13;;;;;;;77.30;11.52;;;;;;;;;;4939781;28;20094;-66
2022/09/02 04:36:40;;;;;;;81.00;10.25;;;;;;;;;;4922581;29;20054;-67
2022/09/02 04:39:09;;;;;;;152.57;14.43;;;;;;;;;;4932480;29;20496;-66
2022/09/02 04:41:36;;;;;;;70.47;8.52;;;;;;;;;;4944915;28;20508;-66
2022/09/02 04:44:07;;;;;;;60.63;9.45;;;;;;;;;;4949396;29;20039;-64
2022/09/02 04:46:39;;;;;;;71.75;9.52;;;;;;;;;;4924420;29;20137;-64
2022/09/02 04:49:11;;;;;;;68.38;9.75;;;;;;;;;;4937418;29;20046;-64
2022/09/02 04:51:39;;;;;;;67.13;10.02;;;;;;;;;;4930406;29;20054;-64
2022/09/02 04:54:08;;;;;;;57.90;10.27;;;;;;;;;;4923807;29;20062;-63
2022/09/02 04:56:37;;;;;;;61.08;9.95;;;;;;;;;;4921666;29;20147;-65
2022/09/02 04:59:06;;;;;;;65.55;9.50;;;;;;;;;;4921859;29;20050;-66
2022/09/02 05:01:35;;;;;;;56.20;8.23;;;;;;;;;;4921649;29;20055;-65
2022/09/02 05:04:11;;;;;;;57.90;9.70;;;;;;;;;;4937199;28;20050;-66
2022/09/02 05:06:42;;;;;;;49.47;8.20;;;;;;;;;;4919600;29;20140;-65
2022/09/02 05:09:16;;;;;;;54.90;8.40;;;;;;;;;;4922243;29;20044;-65
2022/09/02 05:11:47;;;;;;;67.25;9.65;;;;;;;;;;4921342;29;20051;-65
2022/09/02 05:14:15;;;;;;;54.17;8.52;;;;;;;;;;4922019;29;20092;-65
2022/09/02 05:16:42;;;;;;;93.18;11.60;;;;;;;;;;4939038;28;20042;-65
2022/09/02 05:19:12;;;;;;;557.25;43.15;;;;;;;;;;4968107;28;20055;-66
2022/09/02 05:21:46;;;;;;;91.20;11.60;;;;;;;;;;4919211;29;20138;-66
2022/09/02 05:24:21;;;;;;;71.72;12.05;;;;;;;;;;4922020;29;20043;-65
2022/09/02 05:26:53;;;;;;;73.43;11.48;;;;;;;;;;4938450;29;20055;-66
2022/09/02 05:29:21;;;;;;;64.68;10.43;;;;;;;;;;4945761;29;20083;-65
2022/09/02 05:31:47;;;;;;;103.60;13.63;;;;;;;;;;4948842;29;20051;-66
2022/09/02 05:34:15;;;;;;;66.05;10.73;;;;;;;;;;4921657;28;20094;-66
2022/09/02 05:36:41;;;;;;;53.47;9.82;;;;;;;;;;4921838;29;20580;-66
2022/09/02 05:39:08;;;;;;;151.48;12.68;;;;;;;;;;4934581;29;20059;-66
2022/09/02 05:41:36;;;;;;;18.95;4.35;;;;;;;;;;4936831;28;20070;-67
2022/09/02 05:44:05;;;;;;;20.58;4.65;;;;;;;;;;4931360;29;20500;-66
2022/09/02 05:46:33;;;;;;;72.28;8.48;;;;;;;;;;4936089;28;20070;-67
2022/09/02 05:49:08;;;;;;;25.10;3.95;;;;;;;;;;4951961;29;20137;-66
2022/09/02 05:51:43;;;;;;;26.60;3.92;;;;;;;;;;4919297;29;20052;-66
2022/09/02 05:54:12;;;;;;;16.02;3.38;;;;;;;;;;4945398;29;20139;-66
2022/09/02 05:56:40;;;;;;;31.33;3.88;;;;;;;;;;4921325;29;20051;-66
2022/09/02 05:59:12;;;;;;;43.92;5.10;;;;;;;;;;4920914;29;20075;-66
2022/09/02 06:01:39;;;;;;;29.48;3.72;;;;;;;;;;4946794;28;20489;-66
2022/09/02 06:04:06;;;;;;;54.50;6.20;;;;;;;;;;4952601;28;20492;-66
2022/09/02 06:06:37;;;;;;;62.75;5.78;;;;;;;;;;4918922;29;20071;-66
2022/09/02 06:09:07;;;;;;;25.60;3.05;;;;;;;;;;4924540;28;20054;-66
2022/09/02 06:11:38;;;;;;;23.85;3.85;;;;;;;;;;4937512;29;20406;-66
2022/09/02 06:14:08;;;;;;;25.25;3.47;;;;;;;;;;4920152;29;20031;-66
2022/09/02 06:16:37;;;;;;;30.90;5.15;;;;;;;;;;4920953;29;20075;-66
2022/09/02 06:19:07;;;;;;;43.63;5.03;;;;;;;;;;4918819;29;20116;-63
2022/09/02 06:21:36;;;;;;;9.93;1.90;;;;;;;;;;4934790;29;20459;-63
2022/09/02 06:24:06;;;;;;;19.98;2.80;;;;;;;;;;4935830;29;20047;-63
2022/09/02 06:26:34;;;;;;;32.58;4.15;;;;;;;;;;4926308;29;20127;-63
2022/09/02 06:29:01;;;;;;;22.77;4.05;;;;;;;;;;4943986;28;20119;-65
2022/09/02 06:31:29;;;;;;;28.50;3.92;;;;;;;;;;4919880;29;20043;-63
2022/09/02 06:34:02;;;;;;;22.52;3.15;;;;;;;;;;4919676;29;20058;-63
2022/09/02 06:36:30;;;;;;;21.42;2.88;;;;;;;;;;4907400;29;20130;-63
2022/09/02 06:38:59;;;;;;;31.42;4.30;;;;;;;;;;4937202;29;20075;-65
2022/09/02 06:41:29;;;;;;;18.80;3.00;;;;;;;;;;4944533;28;20078;-63
2022/09/02 06:43:59;;;;;;;95.97;9.55;;;;;;;;;;4947247;28;20139;-65
2022/09/02 06:46:27;;;;;;;25.92;3.63;;;;;;;;;;4937810;29;20055;-63
2022/09/02 06:48:56;;;;;;;16.65;2.65;;;;;;;;;;4939235;29;20061;-64
2022/09/02 06:51:29;;;;;;;14.88;2.38;;;;;;;;;;4935846;29;20507;-65
2022/09/02 06:53:59;;;;;;;23.88;2.75;;;;;;;;;;4935229;29;20098;-64
2022/09/02 06:56:29;;;;;;;245.90;18.90;;;;;;;;;;4943946;28;20055;-65
2022/09/02 06:58:56;;;;;;;69.65;6.35;;;;;;;;;;4924176;29;20511;-64
2022/09/02 07:01:36;;;;;;;42.67;5.20;;;;;;;;;;4934643;29;20039;-64
2022/09/02 07:06:51;;;;;;;28.13;3.47;;;;;;;;;;4930418;29;20043;-64
2022/09/02 07:09:29;;;;;;;12.90;2.45;;;;;;;;;;4944634;29;20039;-65
2022/09/02 07:12:03;;;;;;;14.52;2.30;;;;;;;;;;4932435;29;20071;-65
2022/09/02 07:14:37;;;;;;;26.45;3.40;;;;;;;;;;4932985;29;20043;-65
2022/09/02 07:17:04;;;;;;;43.97;4.32;;;;;;;;;;4933683;29;20387;-66
2022/09/02 07:19:31;;;;;;;194.02;14.27;;;;;;;;;;4932714;29;20051;-64
2022/09/02 07:21:58;;;;;;;27.80;3.05;;;;;;;;;;4934796;29;20058;-63
2022/09/02 07:24:25;;;;;;;25.80;3.20;;;;;;;;;;4936750;29;20051;-66
2022/09/02 07:26:52;;;;;;;29.52;3.38;;;;;;;;;;4943386;29;20067;-66
2022/09/02 07:29:22;;;;;;;22.50;2.72;;;;;;;;;;4927335;29;20058;-67
2022/09/02 07:31:49;;;;;;;20.80;2.58;;;;;;;;;;4934857;29;20050;-65
2022/09/02 07:34:18;;;;;;;13.18;2.17;;;;;;;;;;4920015;28;20531;-64
2022/09/02 07:36:47;;;;;;;49.38;5.78;;;;;;;;;;4919743;29;20048;-63
2022/09/02 07:39:17;;;;;;;75.57;7.32;;;;;;;;;;4930215;29;20149;-63
2022/09/02 07:41:45;;;;;;;31.25;3.53;;;;;;;;;;4933050;29;20039;-63
2022/09/02 07:44:12;;;;;;;31.77;3.58;;;;;;;;;;4930744;29;20716;-63
2022/09/02 07:46:40;;;;;;;22.25;2.63;;;;;;;;;;4934864;29;20099;-63
2022/09/02 07:49:11;;;;;;;37.65;4.15;;;;;;;;;;4934438;29;20055;-62
2022/09/02 07:51:39;;;;;;;45.08;4.50;;;;;;;;;;4933644;29;20074;-62
2022/09/02 07:54:07;;;;;;;81.10;6.85;;;;;;;;;;4934666;29;20111;-62
2022/09/02 07:56:34;;;;;;;18.67;2.55;;;;;;;;;;4935383;29;20631;-63
2022/09/02 07:59:02;;;;;;;44.15;4.15;;;;;;;;;;4917626;29;20040;-62
2022/09/02 08:01:29;;;;;;;170.73;12.85;;;;;;;;;;4919062;29;20044;-62
2022/09/02 08:03:56;;;;;;;19.48;2.55;;;;;;;;;;4920186;29;20238;-62
2022/09/02 08:06:30;;;;;;;45.20;4.20;;;;;;;;;;4944057;28;20054;-62
2022/09/02 08:09:05;;;;;;;15.35;2.05;;;;;;;;;;4946172;28;20043;-62
2022/09/02 08:11:34;;;;;;;26.45;3.03;;;;;;;;;;4940524;29;20135;-62
2022/09/02 08:14:01;;;;;;;18.02;2.33;;;;;;;;;;4940248;29;20411;-62
2022/09/02 08:16:27;;;;;;;21.65;2.33;;;;;;;;;;4940502;28;20039;-61
2022/09/02 08:18:54;;;;;;;55.70;4.65;;;;;;;;;;4936237;29;20056;-62
2022/09/02 08:21:21;;;;;;;12.77;1.77;;;;;;;;;;4940085;29;20134;-62
2022/09/02 08:23:49;;;;;;;27.02;2.88;;;;;;;;;;4940100;28;20047;-62
2022/09/02 08:26:17;;;;;;;21.13;2.35;;;;;;;;;;4940252;29;20044;-62
2022/09/02 08:28:43;;;;;;;36.70;3.40;;;;;;;;;;4939473;29;20078;-61
2022/09/02 08:31:10;;;;;;;37.88;3.72;;;;;;;;;;4935635;29;20074;-62
2022/09/02 08:33:36;;;;;;;47.03;4.25;;;;;;;;;;4938470;29;20535;-62
2022/09/02 08:36:04;;;;;;;16.92;2.10;;;;;;;;;;4941838;28;20110;-62
2022/09/02 08:38:31;;;;;;;30.05;2.80;;;;;;;;;;4938841;28;20052;-62
2022/09/02 08:40:58;;;;;;;62.15;5.55;;;;;;;;;;4938233;28;20066;-62
2022/09/02 08:43:42;;;;;;;30.50;3.05;;;;;;;;;;4937992;29;20039;-62
2022/09/02 08:46:09;;;;;;;;;;;;;;;;;;4952347;29;20066;-62
2022/09/02 08:48:36;;;;;;;45.95;4.35;;;;;;;;;;4937621;29;19927;-62
2022/09/02 08:51:06;;;;;;;13.70;1.60;;;;;;;;;;4939988;28;20083;-62
2022/09/02 08:54:04;;;;;;;23.98;2.40;;;;;;;;;;4939775;29;20058;-62
2022/09/02 08:56:31;;;;;;;15.75;1.90;;;;;;;;;;4903556;29;20149;-62
2022/09/02 08:59:01;;;;;;;32.35;3.13;;;;;;;;;;4909783;29;20608;-62
2022/09/02 09:01:33;;;;;;;9.10;1.35;;;;;;;;;;4899871;29;20099;-62
2022/09/02 09:04:02;;;;;;;30.35;2.88;;;;;;;;;;4899519;29;20549;-62
2022/09/02 09:06:34;;;;;;;16.17;1.83;;;;;;;;;;4910912;29;20080;-64
2022/09/02 09:09:19;;;;;;;6.88;1.23;;;;;;;;;;4910189;29;20067;-61
2022/09/02 09:11:56;;;;;;;19.33;2.17;;;;;;;;;;4908824;29;20178;-61
2022/09/02 09:14:25;;;;;;;20.45;2.13;;;;;;;;;;4909633;29;20493;-61
2022/09/02 09:16:56;;;;;;;78.15;6.07;;;;;;;;;;4912984;29;20067;-60
2022/09/02 09:19:53;;;;;;;45.10;3.63;;;;;;;;;;4898743;29;20122;-61
2022/09/02 09:22:21;;;;;;;15.48;2.00;;;;;;;;;;4901923;29;20074;-62
2022/09/02 09:24:49;;;;;;;36.00;3.58;;;;;;;;;;4909970;29;20047;-62
2022/09/02 09:27:19;;;;;;;144.07;10.55;;;;;;;;;;4908928;29;20127;-62
2022/09/02 09:29:47;;;;;;;11.80;1.80;;;;;;;;;;4908035;29;20049;-64
2022/09/02 09:32:14;;;;;;;29.02;3.38;;;;;;;;;;4921510;29;20051;-62
2022/09/02 09:35:01;;;;;;;39.13;4.20;;;;;;;;;;4939452;28;20125;-62
2022/09/02 09:37:47;;;;;;;13.02;2.05;;;;;;;;;;4939075;29;20107;-63
2022/09/02 09:40:20;;;;;;;23.30;2.85;;;;;;;;;;4937475;28;20420;-62
2022/09/02 09:42:48;;;;;;;31.48;3.22;;;;;;;;;;4940231;29;20075;-64
2022/09/02 09:45:39;;;;;;;29.98;4.05;;;;;;;;;;4939353;29;20116;-64
2022/09/02 09:48:15;;;;;;;9.95;1.75;;;;;;;;;;4940269;29;20179;-62
2022/09/02 09:50:42;;;;;;;23.38;2.92;;;;;;;;;;4938648;28;20040;-64
2022/09/02 09:53:19;;;;;;;7.63;1.65;;;;;;;;;;4938907;28;20173;-64
2022/09/02 09:56:09;;;;;;;41.38;4.30;;;;;;;;;;4938305;28;20054;-64
2022/09/02 09:58:39;;;;;;;20.33;2.63;;;;;;;;;;4932847;28;20054;-64
2022/09/02 10:01:13;;;;;;;84.47;7.18;;;;;;;;;;4943989;29;20119;-63
2022/09/02 10:03:41;;;;;;;32.30;3.42;;;;;;;;;;4939969;29;20493;-63
2022/09/02 10:06:21;;;;;;;21.40;2.17;;;;;;;;;;4951296;29;20123;-65
2022/09/02 10:08:53;;;;;;;44.83;4.20;;;;;;;;;;4951018;28;20074;-63
2022/09/02 10:11:24;;;;;;;25.85;2.58;;;;;;;;;;4951476;28;20118;-63
2022/09/02 10:13:58;;;;;;;16.52;1.88;;;;;;;;;;4952030;29;20087;-63
2022/09/02 10:16:45;;;;;;;31.80;2.63;;;;;;;;;;4951245;28;20509;-63
2022/09/02 10:19:25;;;;;;;27.38;2.83;;;;;;;;;;4926635;28;20531;-63
2022/09/02 10:21:52;;;;;;;32.25;2.83;;;;;;;;;;4951463;29;20075;-64
2022/09/02 10:24:18;;;;;;;31.85;3.22;;;;;;;;;;4951080;28;20043;-63
2022/09/02 10:26:47;;;;;;;85.65;6.70;;;;;;;;;;4950961;29;20078;-63
2022/09/02 10:29:31;;;;;;;49.13;4.07;;;;;;;;;;4948292;28;20133;-63
2022/09/02 10:31:58;;;;;;;18.05;1.83;;;;;;;;;;4951734;28;20071;-62
2022/09/02 10:34:27;;;;;;;24.70;2.33;;;;;;;;;;4951903;28;20087;-62
2022/09/02 10:36:57;;;;;;;28.05;2.65;;;;;;;;;;4951973;29;20095;-63
2022/09/02 10:39:42;;;;;;;56.97;4.95;;;;;;;;;;4932309;29;20036;-63
2022/09/02 10:42:18;;;;;;;32.58;2.88;;;;;;;;;;4949735;29;20043;-62
2022/09/02 10:44:50;;;;;;;34.55;3.40;;;;;;;;;;4948579;29;20043;-63
2022/09/02 10:47:26;;;;;;;33.20;2.83;;;;;;;;;;4948562;28;20120;-62
2022/09/02 10:49:56;;;;;;;22.40;2.22;;;;;;;;;;4950478;29;20042;-62
2022/09/02 10:52:42;;;;;;;40.25;3.40;;;;;;;;;;4950072;29;20078;-62
2022/09/02 10:55:15;;;;;;;24.17;2.25;;;;;;;;;;4950467;28;20047;-62
2022/09/02 10:57:51;;;;;;;28.83;2.58;;;;;;;;;;4949033;29;20114;-62
2022/09/02 11:00:20;;;;;;;24.20;2.50;;;;;;;;;;4932403;29;20043;-62
2022/09/02 11:03:13;;;;;;;41.63;3.55;;;;;;;;;;4949532;29;20397;-62
2022/09/02 11:05:42;;;;;;;18.10;1.85;;;;;;;;;;4939840;29;20499;-62
2022/09/02 11:08:09;;;;;;;30.60;2.88;;;;;;;;;;4941517;28;20472;-62
2022/09/02 11:10:55;;;;;;;47.35;3.70;;;;;;;;;;4951754;28;20039;-62
2022/09/02 11:13:25;;;;;;;59.05;3.80;;;;;;;;;;4934919;28;20051;-78
2022/09/02 11:16:04;;;;;;;20.98;2.03;;;;;;;;;;4933398;29;20043;-76
2022/09/02 11:18:34;;;;;;;66.47;6.40;;;;;;;;;;4934833;29;20531;-76
2022/09/02 11:21:08;;;;;;;45.42;4.00;;;;;;;;;;4936074;29;20405;-73
2022/09/02 11:23:37;;;;;;;30.08;2.78;;;;;;;;;;4936268;29;20050;-73
2022/09/02 11:26:04;;;;;;;33.30;2.72;;;;;;;;;;4936032;28;20059;-73
2022/09/02 11:28:49;;;;;;;236.27;16.33;;;;;;;;;;4936059;29;20134;-73
2022/09/02 11:31:23;;;;;;;29.70;2.80;;;;;;;;;;4934344;28;20079;-73
2022/09/02 11:33:50;;;;;;;16.05;1.60;;;;;;;;;;4952152;28;20441;-72
2022/09/02 11:36:17;;;;;;;27.88;2.88;;;;;;;;;;4942541;28;20488;-72
2022/09/02 11:38:51;;;;;;;96.95;7.18;;;;;;;;;;4949712;28;20043;-73
2022/09/02 11:41:24;;;;;;;12.43;1.30;;;;;;;;;;4938712;29;20039;-73
2022/09/02 11:44:14;;;;;;;36.17;3.40;;;;;;;;;;4950703;29;20055;-73
2022/09/02 11:46:53;;;;;;;515.08;34.55;;;;;;;;;;4955331;29;20039;-73
2022/09/02 11:49:20;;;;;;;32.60;2.88;;;;;;;;;;4955227;29;20051;-73
2022/09/02 11:52:13;;;;;;;14.27;1.50;;;;;;;;;;4938734;29;20162;-73
2022/09/02 11:54:41;;;;;;;34.00;3.03;;;;;;;;;;4933621;29;20527;-73
2022/09/02 11:57:12;;;;;;;17.13;1.80;;;;;;;;;;4952569;28;20345;-74
2022/09/02 11:59:51;;;;;;;22.20;2.80;;;;;;;;;;4945977;29;20051;-74
2022/09/02 12:02:29;;;;;;;12.93;1.55;;;;;;;;;;4940516;29;20072;-73
2022/09/02 12:05:15;;;;;;;34.08;3.17;;;;;;;;;;4940204;29;20082;-73
2022/09/02 12:07:48;;;;;;;32.53;2.97;;;;;;;;;;4953019;28;20035;-74
2022/09/02 12:10:33;;;;;;;36.25;3.50;;;;;;;;;;4936321;28;20595;-73
2022/09/02 12:13:02;;;;;;;21.00;1.92;;;;;;;;;;4938896;28;20054;-73
2022/09/02 12:15:28;;;;;;;37.53;3.28;;;;;;;;;;4938752;29;20068;-74
2022/09/02 12:17:55;;;;;;;17.88;1.75;;;;;;;;;;4939443;28;20079;-74
2022/09/02 12:20:43;;;;;;;347.88;19.85;;;;;;;;;;4939203;28;20513;-74
2022/09/02 12:23:34;;;;;;;123.88;7.47;;;;;;;;;;4937267;28;20725;-74
2022/09/02 12:26:05;;;;;;;50.78;4.35;;;;;;;;;;4955617;28;20796;-74
2022/09/02 12:28:32;;;;;;;216.15;15.32;;;;;;;;;;4956393;28;20039;-73
2022/09/02 12:31:06;;;;;;;36.03;3.22;;;;;;;;;;4953185;29;20071;-73
2022/09/02 12:33:34;;;;;;;62.90;15.15;;;;;;;;;;4959918;28;20112;-73
2022/09/02 12:36:03;;;;;;;10.63;1.40;;;;;;;;;;4961720;28;20520;-73
2022/09/02 12:38:36;;;;;;;29.10;2.47;;;;;;;;;;4959103;28;20046;-73
2022/09/02 12:41:03;;;;;;;35.20;3.30;;;;;;;;;;4969178;28;20043;-73
2022/09/02 12:43:34;;;;;;;14.40;1.63;;;;;;;;;;4941320;28;20300;-73
2022/09/02 12:46:06;;;;;;;27.25;2.60;;;;;;;;;;4958216;28;20069;-71
2022/09/02 12:48:37;;;;;;;34.35;2.92;;;;;;;;;;4959152;28;20067;-73
2022/09/02 12:51:04;;;;;;;24.70;2.83;;;;;;;;;;4958335;28;20039;-72
2022/09/02 12:53:36;;;;;;;28.92;2.80;;;;;;;;;;4966216;28;20053;-72
2022/09/02 12:56:05;;;;;;;247.57;20.13;;;;;;;;;;4968999;28;20114;-72
2022/09/02 12:58:34;;;;;;;352.55;26.95;;;;;;;;;;4958055;28;20544;-72
2022/09/02 13:01:04;;;;;;;16.55;1.58;;;;;;;;;;4953359;28;20070;-73
2022/09/02 13:03:40;;;;;;;29.50;2.85;;;;;;;;;;4957972;28;20047;-73
2022/09/02 13:06:24;;;;;;;35.63;3.25;;;;;;;;;;4957865;28;20039;-73
2022/09/02 13:09:29;;;;;;;37.30;3.28;;;;;;;;;;4958199;28;20067;-73
2022/09/02 13:12:08;;;;;;;235.13;15.48;;;;;;;;;;4909097;29;20056;-73
2022/09/02 13:14:34;;;;;;;50.88;4.00;;;;;;;;;;4912840;29;20132;-73
2022/09/02 13:17:07;;;;;;;360.65;28.50;;;;;;;;;;4913959;29;20568;-73
2022/09/02 13:20:13;;;;;;;62.45;6.00;;;;;;;;;;4912950;29;20036;-73
2022/09/02 13:22:59;;;;;;;33.67;3.40;;;;;;;;;;4912687;29;20056;-73
2022/09/02 13:25:31;;;;;;;31.88;2.90;;;;;;;;;;4912264;29;20406;-73
2022/09/02 13:28:12;;;;;;;38.40;5.60;;;;;;;;;;4894358;29;20048;-73
2022/09/02 13:30:57;;;;;;;44.28;4.03;;;;;;;;;;4913019;29;20084;-72
2022/09/02 13:33:24;;;;;;;49.53;4.30;;;;;;;;;;4903444;29;20614;-73
2022/09/02 13:35:55;;;;;;;55.55;4.32;;;;;;;;;;4900497;29;20092;-73
2022/09/02 13:38:23;;;;;;;24.13;2.50;;;;;;;;;;4909443;29;20068;-74
2022/09/02 13:40:50;;;;;;;46.85;3.97;;;;;;;;;;4912411;29;20119;-74
2022/09/02 13:43:18;;;;;;;52.05;4.13;;;;;;;;;;4954867;28;20073;-72
2022/09/02 13:45:46;;;;;;;24.50;2.05;;;;;;;;;;4954914;28;20044;-74
2022/09/02 13:48:20;;;;;;;57.65;4.97;;;;;;;;;;4970439;28;20130;-72
2022/09/02 13:50:51;;;;;;;102.72;8.30;;;;;;;;;;4972097;28;20047;-74
2022/09/02 13:53:32;;;;;;;33.88;2.97;;;;;;;;;;4971934;28;20094;-74
2022/09/02 13:56:23;;;;;;;37.28;3.33;;;;;;;;;;4965982;28;20082;-73
2022/09/02 13:58:51;;;;;;;53.42;5.10;;;;;;;;;;4955994;28;20080;-72
2022/09/02 14:01:21;;;;;;;30.33;2.88;;;;;;;;;;4955525;28;20480;-74
2022/09/02 14:03:50;;;;;;;50.20;4.43;;;;;;;;;;4954041;28;20055;-72
2022/09/02 14:06:18;;;;;;;9.75;1.10;;;;;;;;;;4971335;28;20041;-74
2022/09/02 14:08:52;;;;;;;114.78;8.23;;;;;;;;;;4961013;28;20051;-74
2022/09/02 14:11:20;;;;;;;50.75;4.30;;;;;;;;;;4956589;28;20117;-73
2022/09/02 14:13:47;;;;;;;25.08;2.42;;;;;;;;;;4956197;28;20069;-73
2022/09/02 14:16:23;;;;;;;41.40;3.72;;;;;;;;;;4958311;28;20547;-73
2022/09/02 14:19:09;;;;;;;49.97;4.38;;;;;;;;;;4964510;28;20149;-73
2022/09/02 14:21:42;;;;;;;35.40;3.40;;;;;;;;;;4970924;28;20055;-73
2022/09/02 14:24:11;;;;;;;20.40;2.33;;;;;;;;;;4959129;28;20662;-73
2022/09/02 14:26:41;;;;;;;40.15;3.47;;;;;;;;;;4960205;28;20122;-74
2022/09/02 14:29:11;;;;;;;60.00;4.97;;;;;;;;;;4959462;28;20246;-74
2022/09/02 14:31:38;;;;;;;39.97;3.53;;;;;;;;;;4956440;28;20122;-74
2022/09/02 14:34:24;;;;;;;121.47;8.70;;;;;;;;;;4957689;28;20078;-71
2022/09/02 14:36:51;;;;;;;55.33;4.05;;;;;;;;;;4968596;28;20042;-71
2022/09/02 14:39:17;;;;;;;30.27;2.40;;;;;;;;;;4957276;28;20064;-69
2022/09/02 14:41:51;;;;;;;226.30;14.02;;;;;;;;;;4974005;28;20089;-71
2022/09/02 14:44:32;;;;;;;68.35;6.07;;;;;;;;;;4967534;28;20043;-68
2022/09/02 14:47:02;;;;;;;66.90;5.18;;;;;;;;;;4967449;28;20035;-68
2022/09/02 14:49:30;;;;;;;24.23;2.50;;;;;;;;;;4955729;28;20130;-66
2022/09/02 14:52:02;;;;;;;125.10;8.93;;;;;;;;;;4952358;28;20047;-66